sensor_id;sensor_type;location;lat;lon;timestamp;P1;durP1;ratioP1;P2;durP2;ratioP2
26582;SDS011;14230;45.382;10.998;2022-08-19T00:01:53;7.30;;;3.97;;
26582;SDS011;14230;45.382;10.998;2022-08-19T00:04:26;9.18;;;4.50;;
26582;SDS011;14230;45.382;10.998;2022-08-19T00:06:55;9.07;;;5.60;;
26582;SDS011;14230;45.382;10.998;2022-08-19T00:09:23;11.52;;;5.30;;
26582;SDS011;14230;45.382;10.998;2022-08-19T00:11:52;10.52;;;5.18;;
26582;SDS011;14230;45.382;10.998;2022-08-19T00:14:23;9.18;;;5.30;;
26582;SDS011;14230;45.382;10.998;2022-08-19T00:16:51;9.52;;;4.60;;
26582;SDS011;14230;45.382;10.998;2022-08-19T00:19:21;8.15;;;4.18;;
26582;SDS011;14230;45.382;10.998;2022-08-19T00:21:50;8.57;;;3.72;;
26582;SDS011;14230;45.382;10.998;2022-08-19T00:24:18;8.70;;;3.35;;
26582;SDS011;14230;45.382;10.998;2022-08-19T00:26:46;9.15;;;4.03;;
26582;SDS011;14230;45.382;10.998;2022-08-19T00:29:16;10.25;;;3.72;;
26582;SDS011;14230;45.382;10.998;2022-08-19T00:31:45;12.23;;;4.00;;
26582;SDS011;14230;45.382;10.998;2022-08-19T00:34:13;7.13;;;4.05;;
26582;SDS011;14230;45.382;10.998;2022-08-19T00:36:41;7.70;;;4.10;;
26582;SDS011;14230;45.382;10.998;2022-08-19T00:39:09;8.95;;;4.15;;
26582;SDS011;14230;45.382;10.998;2022-08-19T00:41:38;10.60;;;3.58;;
26582;SDS011;14230;45.382;10.998;2022-08-19T00:46:37;8.00;;;3.20;;
26582;SDS011;14230;45.382;10.998;2022-08-19T00:49:11;10.23;;;3.42;;
26582;SDS011;14230;45.382;10.998;2022-08-19T00:51:48;6.57;;;2.97;;
26582;SDS011;14230;45.382;10.998;2022-08-19T00:54:19;7.63;;;2.97;;
26582;SDS011;14230;45.382;10.998;2022-08-19T00:56:57;8.07;;;3.08;;
26582;SDS011;14230;45.382;10.998;2022-08-19T00:59:26;6.75;;;3.15;;
26582;SDS011;14230;45.382;10.998;2022-08-19T01:02:15;9.88;;;4.03;;
26582;SDS011;14230;45.382;10.998;2022-08-19T01:04:43;12.00;;;3.97;;
26582;SDS011;14230;45.382;10.998;2022-08-19T01:07:11;12.00;;;3.65;;
26582;SDS011;14230;45.382;10.998;2022-08-19T01:09:43;9.68;;;4.68;;
26582;SDS011;14230;45.382;10.998;2022-08-19T01:12:10;17.55;;;6.22;;
26582;SDS011;14230;45.382;10.998;2022-08-19T01:14:38;11.05;;;5.93;;
26582;SDS011;14230;45.382;10.998;2022-08-19T01:17:08;11.57;;;6.70;;
26582;SDS011;14230;45.382;10.998;2022-08-19T01:19:38;14.98;;;6.85;;
26582;SDS011;14230;45.382;10.998;2022-08-19T01:24:57;16.40;;;6.93;;
26582;SDS011;14230;45.382;10.998;2022-08-19T01:27:25;12.15;;;7.57;;
26582;SDS011;14230;45.382;10.998;2022-08-19T01:29:57;14.82;;;8.50;;
26582;SDS011;14230;45.382;10.998;2022-08-19T01:32:24;19.58;;;9.45;;
26582;SDS011;14230;45.382;10.998;2022-08-19T01:35:00;17.40;;;8.57;;
26582;SDS011;14230;45.382;10.998;2022-08-19T01:37:29;17.30;;;9.27;;
26582;SDS011;14230;45.382;10.998;2022-08-19T01:40:08;15.35;;;8.10;;
26582;SDS011;14230;45.382;10.998;2022-08-19T01:42:36;15.88;;;8.48;;
26582;SDS011;14230;45.382;10.998;2022-08-19T01:45:04;18.45;;;8.70;;
26582;SDS011;14230;45.382;10.998;2022-08-19T01:47:35;14.88;;;9.38;;
26582;SDS011;14230;45.382;10.998;2022-08-19T01:50:04;18.02;;;8.60;;
26582;SDS011;14230;45.382;10.998;2022-08-19T01:52:34;16.58;;;8.05;;
26582;SDS011;14230;45.382;10.998;2022-08-19T01:55:04;23.45;;;7.47;;
26582;SDS011;14230;45.382;10.998;2022-08-19T01:57:34;13.10;;;8.40;;
26582;SDS011;14230;45.382;10.998;2022-08-19T02:00:04;19.95;;;9.23;;
26582;SDS011;14230;45.382;10.998;2022-08-19T02:02:37;13.80;;;8.32;;
26582;SDS011;14230;45.382;10.998;2022-08-19T02:05:04;17.67;;;7.97;;
26582;SDS011;14230;45.382;10.998;2022-08-19T02:07:36;12.77;;;8.10;;
26582;SDS011;14230;45.382;10.998;2022-08-19T02:10:08;20.35;;;8.80;;
26582;SDS011;14230;45.382;10.998;2022-08-19T02:12:42;18.52;;;8.32;;
26582;SDS011;14230;45.382;10.998;2022-08-19T02:15:10;13.50;;;8.50;;
26582;SDS011;14230;45.382;10.998;2022-08-19T02:17:39;17.55;;;8.60;;
26582;SDS011;14230;45.382;10.998;2022-08-19T02:20:07;15.27;;;8.38;;
26582;SDS011;14230;45.382;10.998;2022-08-19T02:22:35;16.15;;;9.70;;
26582;SDS011;14230;45.382;10.998;2022-08-19T02:25:03;17.05;;;8.68;;
26582;SDS011;14230;45.382;10.998;2022-08-19T02:27:31;17.48;;;9.38;;
26582;SDS011;14230;45.382;10.998;2022-08-19T02:30:00;18.08;;;9.25;;
26582;SDS011;14230;45.382;10.998;2022-08-19T02:32:28;16.77;;;9.73;;
26582;SDS011;14230;45.382;10.998;2022-08-19T02:34:57;18.73;;;9.60;;
26582;SDS011;14230;45.382;10.998;2022-08-19T02:37:24;19.13;;;8.90;;
26582;SDS011;14230;45.382;10.998;2022-08-19T02:40:10;16.33;;;9.48;;
26582;SDS011;14230;45.382;10.998;2022-08-19T02:42:38;20.58;;;9.05;;
26582;SDS011;14230;45.382;10.998;2022-08-19T02:45:07;18.40;;;8.63;;
26582;SDS011;14230;45.382;10.998;2022-08-19T02:47:35;15.80;;;9.85;;
26582;SDS011;14230;45.382;10.998;2022-08-19T02:50:03;52.05;;;38.78;;
26582;SDS011;14230;45.382;10.998;2022-08-19T02:52:32;13.35;;;8.60;;
26582;SDS011;14230;45.382;10.998;2022-08-19T02:55:00;17.35;;;8.82;;
26582;SDS011;14230;45.382;10.998;2022-08-19T02:57:29;15.85;;;7.88;;
26582;SDS011;14230;45.382;10.998;2022-08-19T02:59:58;12.95;;;8.05;;
26582;SDS011;14230;45.382;10.998;2022-08-19T03:02:26;11.85;;;7.90;;
26582;SDS011;14230;45.382;10.998;2022-08-19T03:04:54;14.35;;;7.30;;
26582;SDS011;14230;45.382;10.998;2022-08-19T03:07:21;13.80;;;8.05;;
26582;SDS011;14230;45.382;10.998;2022-08-19T03:09:48;17.02;;;7.55;;
26582;SDS011;14230;45.382;10.998;2022-08-19T03:12:16;20.15;;;7.85;;
26582;SDS011;14230;45.382;10.998;2022-08-19T03:14:43;12.30;;;7.53;;
26582;SDS011;14230;45.382;10.998;2022-08-19T03:17:12;17.33;;;7.45;;
26582;SDS011;14230;45.382;10.998;2022-08-19T03:19:40;11.93;;;6.40;;
26582;SDS011;14230;45.382;10.998;2022-08-19T03:22:07;18.65;;;6.43;;
26582;SDS011;14230;45.382;10.998;2022-08-19T03:24:35;16.08;;;7.03;;
26582;SDS011;14230;45.382;10.998;2022-08-19T03:27:03;17.75;;;7.38;;
26582;SDS011;14230;45.382;10.998;2022-08-19T03:29:31;12.07;;;7.10;;
26582;SDS011;14230;45.382;10.998;2022-08-19T03:32:09;15.32;;;7.13;;
26582;SDS011;14230;45.382;10.998;2022-08-19T03:34:57;12.65;;;6.65;;
26582;SDS011;14230;45.382;10.998;2022-08-19T03:37:24;15.77;;;6.65;;
26582;SDS011;14230;45.382;10.998;2022-08-19T03:39:52;14.60;;;7.25;;
26582;SDS011;14230;45.382;10.998;2022-08-19T03:42:20;15.50;;;7.35;;
26582;SDS011;14230;45.382;10.998;2022-08-19T03:45:07;15.25;;;6.63;;
26582;SDS011;14230;45.382;10.998;2022-08-19T03:47:37;18.83;;;7.10;;
26582;SDS011;14230;45.382;10.998;2022-08-19T03:50:04;15.18;;;6.25;;
26582;SDS011;14230;45.382;10.998;2022-08-19T03:52:32;9.85;;;5.60;;
26582;SDS011;14230;45.382;10.998;2022-08-19T03:55:00;11.10;;;4.40;;
26582;SDS011;14230;45.382;10.998;2022-08-19T03:57:27;18.75;;;4.85;;
26582;SDS011;14230;45.382;10.998;2022-08-19T03:59:58;10.70;;;3.90;;
26582;SDS011;14230;45.382;10.998;2022-08-19T04:02:40;11.93;;;4.30;;
26582;SDS011;14230;45.382;10.998;2022-08-19T04:05:24;11.75;;;4.05;;
26582;SDS011;14230;45.382;10.998;2022-08-19T04:07:54;13.02;;;3.90;;
26582;SDS011;14230;45.382;10.998;2022-08-19T04:10:24;14.90;;;4.35;;
26582;SDS011;14230;45.382;10.998;2022-08-19T04:12:52;8.75;;;3.75;;
26582;SDS011;14230;45.382;10.998;2022-08-19T04:15:20;10.45;;;4.55;;
26582;SDS011;14230;45.382;10.998;2022-08-19T04:17:47;13.00;;;5.47;;
26582;SDS011;14230;45.382;10.998;2022-08-19T04:20:15;8.43;;;5.82;;
26582;SDS011;14230;45.382;10.998;2022-08-19T04:22:42;15.10;;;7.28;;
26582;SDS011;14230;45.382;10.998;2022-08-19T04:25:10;11.15;;;5.30;;
26582;SDS011;14230;45.382;10.998;2022-08-19T04:27:37;9.43;;;5.38;;
26582;SDS011;14230;45.382;10.998;2022-08-19T04:30:05;16.02;;;5.28;;
26582;SDS011;14230;45.382;10.998;2022-08-19T04:32:33;13.38;;;6.32;;
26582;SDS011;14230;45.382;10.998;2022-08-19T04:35:02;16.00;;;7.53;;
26582;SDS011;14230;45.382;10.998;2022-08-19T04:37:45;17.25;;;7.45;;
26582;SDS011;14230;45.382;10.998;2022-08-19T04:40:12;14.90;;;8.18;;
26582;SDS011;14230;45.382;10.998;2022-08-19T04:42:58;16.15;;;8.13;;
26582;SDS011;14230;45.382;10.998;2022-08-19T04:45:26;18.08;;;9.07;;
26582;SDS011;14230;45.382;10.998;2022-08-19T04:47:54;17.30;;;8.27;;
26582;SDS011;14230;45.382;10.998;2022-08-19T04:50:46;14.98;;;7.60;;
26582;SDS011;14230;45.382;10.998;2022-08-19T04:53:13;17.50;;;7.35;;
26582;SDS011;14230;45.382;10.998;2022-08-19T04:55:42;16.08;;;7.65;;
26582;SDS011;14230;45.382;10.998;2022-08-19T04:58:09;20.48;;;8.02;;
26582;SDS011;14230;45.382;10.998;2022-08-19T05:00:37;14.23;;;7.28;;
26582;SDS011;14230;45.382;10.998;2022-08-19T05:03:06;17.33;;;7.38;;
26582;SDS011;14230;45.382;10.998;2022-08-19T05:05:37;21.45;;;8.15;;
26582;SDS011;14230;45.382;10.998;2022-08-19T05:08:11;22.52;;;9.05;;
26582;SDS011;14230;45.382;10.998;2022-08-19T05:10:42;46.90;;;32.22;;
26582;SDS011;14230;45.382;10.998;2022-08-19T05:13:09;20.05;;;10.85;;
26582;SDS011;14230;45.382;10.998;2022-08-19T05:15:37;19.38;;;7.88;;
26582;SDS011;14230;45.382;10.998;2022-08-19T05:18:05;15.52;;;8.00;;
26582;SDS011;14230;45.382;10.998;2022-08-19T05:20:51;15.65;;;7.13;;
26582;SDS011;14230;45.382;10.998;2022-08-19T05:23:37;16.58;;;7.75;;
26582;SDS011;14230;45.382;10.998;2022-08-19T05:26:04;11.63;;;6.85;;
26582;SDS011;14230;45.382;10.998;2022-08-19T05:28:32;15.35;;;7.03;;
26582;SDS011;14230;45.382;10.998;2022-08-19T05:30:59;13.77;;;7.35;;
26582;SDS011;14230;45.382;10.998;2022-08-19T05:33:27;14.02;;;6.05;;
26582;SDS011;14230;45.382;10.998;2022-08-19T05:35:54;16.33;;;6.32;;
26582;SDS011;14230;45.382;10.998;2022-08-19T05:38:22;15.65;;;7.43;;
26582;SDS011;14230;45.382;10.998;2022-08-19T05:40:50;16.00;;;6.68;;
26582;SDS011;14230;45.382;10.998;2022-08-19T05:43:17;11.73;;;6.35;;
26582;SDS011;14230;45.382;10.998;2022-08-19T05:45:45;14.25;;;6.88;;
26582;SDS011;14230;45.382;10.998;2022-08-19T05:48:13;12.20;;;6.28;;
26582;SDS011;14230;45.382;10.998;2022-08-19T05:50:41;15.50;;;5.70;;
26582;SDS011;14230;45.382;10.998;2022-08-19T05:53:08;18.25;;;6.22;;
26582;SDS011;14230;45.382;10.998;2022-08-19T05:55:36;14.15;;;6.97;;
26582;SDS011;14230;45.382;10.998;2022-08-19T05:58:05;13.93;;;5.53;;
26582;SDS011;14230;45.382;10.998;2022-08-19T06:00:35;11.18;;;5.07;;
26582;SDS011;14230;45.382;10.998;2022-08-19T06:03:03;20.67;;;6.03;;
26582;SDS011;14230;45.382;10.998;2022-08-19T06:05:39;17.30;;;7.65;;
26582;SDS011;14230;45.382;10.998;2022-08-19T06:08:17;21.90;;;11.18;;
26582;SDS011;14230;45.382;10.998;2022-08-19T06:10:45;18.63;;;6.03;;
26582;SDS011;14230;45.382;10.998;2022-08-19T06:13:12;16.10;;;5.50;;
26582;SDS011;14230;45.382;10.998;2022-08-19T06:15:39;15.48;;;5.30;;
26582;SDS011;14230;45.382;10.998;2022-08-19T06:18:10;11.40;;;5.25;;
26582;SDS011;14230;45.382;10.998;2022-08-19T06:20:38;15.13;;;5.55;;
26582;SDS011;14230;45.382;10.998;2022-08-19T06:23:21;13.52;;;5.10;;
26582;SDS011;14230;45.382;10.998;2022-08-19T06:25:50;15.23;;;6.75;;
26582;SDS011;14230;45.382;10.998;2022-08-19T06:28:20;16.17;;;6.43;;
26582;SDS011;14230;45.382;10.998;2022-08-19T06:30:50;12.38;;;5.53;;
26582;SDS011;14230;45.382;10.998;2022-08-19T06:33:18;12.25;;;5.93;;
26582;SDS011;14230;45.382;10.998;2022-08-19T06:35:45;16.73;;;5.90;;
26582;SDS011;14230;45.382;10.998;2022-08-19T06:38:13;16.67;;;6.20;;
26582;SDS011;14230;45.382;10.998;2022-08-19T06:40:40;15.88;;;5.65;;
26582;SDS011;14230;45.382;10.998;2022-08-19T06:45:44;15.95;;;6.28;;
26582;SDS011;14230;45.382;10.998;2022-08-19T06:48:13;13.25;;;5.97;;
26582;SDS011;14230;45.382;10.998;2022-08-19T06:50:44;18.77;;;5.75;;
26582;SDS011;14230;45.382;10.998;2022-08-19T06:53:11;13.10;;;6.32;;
26582;SDS011;14230;45.382;10.998;2022-08-19T06:55:39;17.40;;;7.25;;
26582;SDS011;14230;45.382;10.998;2022-08-19T06:58:07;16.15;;;6.85;;
26582;SDS011;14230;45.382;10.998;2022-08-19T07:00:36;20.08;;;6.65;;
26582;SDS011;14230;45.382;10.998;2022-08-19T07:03:03;19.35;;;6.82;;
26582;SDS011;14230;45.382;10.998;2022-08-19T07:05:39;17.50;;;8.50;;
26582;SDS011;14230;45.382;10.998;2022-08-19T07:08:12;17.95;;;7.95;;
26582;SDS011;14230;45.382;10.998;2022-08-19T07:10:42;19.33;;;7.40;;
26582;SDS011;14230;45.382;10.998;2022-08-19T07:13:11;20.43;;;8.07;;
26582;SDS011;14230;45.382;10.998;2022-08-19T07:15:39;20.15;;;8.90;;
26582;SDS011;14230;45.382;10.998;2022-08-19T07:18:06;16.23;;;8.25;;
26582;SDS011;14230;45.382;10.998;2022-08-19T07:20:38;20.55;;;9.68;;
26582;SDS011;14230;45.382;10.998;2022-08-19T07:23:08;17.95;;;8.77;;
26582;SDS011;14230;45.382;10.998;2022-08-19T07:25:42;20.10;;;9.75;;
26582;SDS011;14230;45.382;10.998;2022-08-19T07:28:10;16.73;;;9.73;;
26582;SDS011;14230;45.382;10.998;2022-08-19T07:30:51;23.35;;;10.85;;
26582;SDS011;14230;45.382;10.998;2022-08-19T07:33:18;16.48;;;9.00;;
26582;SDS011;14230;45.382;10.998;2022-08-19T07:35:46;15.43;;;9.18;;
26582;SDS011;14230;45.382;10.998;2022-08-19T07:38:14;25.52;;;10.77;;
26582;SDS011;14230;45.382;10.998;2022-08-19T07:40:43;20.35;;;9.55;;
26582;SDS011;14230;45.382;10.998;2022-08-19T07:43:13;27.23;;;9.73;;
26582;SDS011;14230;45.382;10.998;2022-08-19T07:45:44;23.40;;;10.80;;
26582;SDS011;14230;45.382;10.998;2022-08-19T07:48:11;23.10;;;10.63;;
26582;SDS011;14230;45.382;10.998;2022-08-19T07:50:39;21.45;;;10.98;;
26582;SDS011;14230;45.382;10.998;2022-08-19T07:53:07;24.45;;;11.40;;
26582;SDS011;14230;45.382;10.998;2022-08-19T07:55:34;17.60;;;10.85;;
26582;SDS011;14230;45.382;10.998;2022-08-19T07:58:09;20.10;;;10.77;;
26582;SDS011;14230;45.382;10.998;2022-08-19T08:00:40;16.10;;;9.75;;
26582;SDS011;14230;45.382;10.998;2022-08-19T08:03:08;19.83;;;10.00;;
26582;SDS011;14230;45.382;10.998;2022-08-19T08:05:36;13.63;;;8.30;;
26582;SDS011;14230;45.382;10.998;2022-08-19T08:08:22;17.00;;;8.00;;
26582;SDS011;14230;45.382;10.998;2022-08-19T08:11:14;13.07;;;7.60;;
26582;SDS011;14230;45.382;10.998;2022-08-19T08:13:46;15.52;;;8.32;;
26582;SDS011;14230;45.382;10.998;2022-08-19T08:16:27;11.80;;;6.40;;
26582;SDS011;14230;45.382;10.998;2022-08-19T08:18:58;14.45;;;6.82;;
26582;SDS011;14230;45.382;10.998;2022-08-19T08:21:27;12.23;;;5.82;;
26582;SDS011;14230;45.382;10.998;2022-08-19T08:23:54;10.73;;;5.60;;
26582;SDS011;14230;45.382;10.998;2022-08-19T08:26:22;9.05;;;4.85;;
26582;SDS011;14230;45.382;10.998;2022-08-19T08:28:51;12.50;;;4.97;;
26582;SDS011;14230;45.382;10.998;2022-08-19T08:31:19;10.98;;;5.22;;
26582;SDS011;14230;45.382;10.998;2022-08-19T08:33:46;14.07;;;5.43;;
26582;SDS011;14230;45.382;10.998;2022-08-19T08:36:15;11.68;;;5.00;;
26582;SDS011;14230;45.382;10.998;2022-08-19T08:38:43;12.18;;;5.03;;
26582;SDS011;14230;45.382;10.998;2022-08-19T08:44:01;8.73;;;5.30;;
26582;SDS011;14230;45.382;10.998;2022-08-19T08:46:35;10.77;;;4.88;;
26582;SDS011;14230;45.382;10.998;2022-08-19T08:52:15;8.87;;;5.07;;
26582;SDS011;14230;45.382;10.998;2022-08-19T08:54:48;12.90;;;5.57;;
26582;SDS011;14230;45.382;10.998;2022-08-19T09:00:15;11.32;;;5.20;;
26582;SDS011;14230;45.382;10.998;2022-08-19T09:03:06;9.77;;;5.78;;
26582;SDS011;14230;45.382;10.998;2022-08-19T09:06:03;11.93;;;6.10;;
26582;SDS011;14230;45.382;10.998;2022-08-19T09:12:01;9.55;;;5.68;;
26582;SDS011;14230;45.382;10.998;2022-08-19T09:14:56;11.45;;;8.45;;
26582;SDS011;14230;45.382;10.998;2022-08-19T09:17:35;14.43;;;11.68;;
26582;SDS011;14230;45.382;10.998;2022-08-19T09:22:36;13.80;;;6.38;;
26582;SDS011;14230;45.382;10.998;2022-08-19T09:25:06;9.80;;;7.35;;
26582;SDS011;14230;45.382;10.998;2022-08-19T09:27:55;10.02;;;5.90;;
26582;SDS011;14230;45.382;10.998;2022-08-19T09:30:30;11.23;;;8.10;;
26582;SDS011;14230;45.382;10.998;2022-08-19T09:33:08;20.17;;;13.63;;
26582;SDS011;14230;45.382;10.998;2022-08-19T09:35:35;17.58;;;10.27;;
26582;SDS011;14230;45.382;10.998;2022-08-19T09:38:18;8.50;;;6.45;;
26582;SDS011;14230;45.382;10.998;2022-08-19T09:40:46;10.70;;;6.47;;
26582;SDS011;14230;45.382;10.998;2022-08-19T09:43:14;12.52;;;7.28;;
26582;SDS011;14230;45.382;10.998;2022-08-19T09:46:00;12.07;;;7.40;;
26582;SDS011;14230;45.382;10.998;2022-08-19T09:48:28;10.85;;;6.95;;
26582;SDS011;14230;45.382;10.998;2022-08-19T09:51:01;14.50;;;8.05;;
26582;SDS011;14230;45.382;10.998;2022-08-19T09:53:31;13.30;;;8.95;;
26582;SDS011;14230;45.382;10.998;2022-08-19T09:56:00;15.35;;;10.02;;
26582;SDS011;14230;45.382;10.998;2022-08-19T09:58:30;9.00;;;6.03;;
26582;SDS011;14230;45.382;10.998;2022-08-19T10:00:58;23.15;;;16.13;;
26582;SDS011;14230;45.382;10.998;2022-08-19T10:03:27;8.32;;;6.05;;
26582;SDS011;14230;45.382;10.998;2022-08-19T10:05:56;8.43;;;7.05;;
26582;SDS011;14230;45.382;10.998;2022-08-19T10:08:26;24.10;;;15.25;;
26582;SDS011;14230;45.382;10.998;2022-08-19T10:10:56;10.30;;;6.90;;
26582;SDS011;14230;45.382;10.998;2022-08-19T10:13:26;11.95;;;9.30;;
26582;SDS011;14230;45.382;10.998;2022-08-19T10:15:57;13.52;;;9.25;;
26582;SDS011;14230;45.382;10.998;2022-08-19T10:18:37;10.35;;;5.15;;
26582;SDS011;14230;45.382;10.998;2022-08-19T10:23:44;7.82;;;3.53;;
26582;SDS011;14230;45.382;10.998;2022-08-19T10:26:14;10.57;;;4.40;;
26582;SDS011;14230;45.382;10.998;2022-08-19T10:28:44;7.25;;;3.70;;
26582;SDS011;14230;45.382;10.998;2022-08-19T10:31:15;10.05;;;4.70;;
26582;SDS011;14230;45.382;10.998;2022-08-19T10:34:06;9.05;;;5.65;;
26582;SDS011;14230;45.382;10.998;2022-08-19T10:36:37;7.30;;;4.43;;
26582;SDS011;14230;45.382;10.998;2022-08-19T10:39:22;9.23;;;5.03;;
26582;SDS011;14230;45.382;10.998;2022-08-19T10:41:56;8.98;;;3.97;;
26582;SDS011;14230;45.382;10.998;2022-08-19T10:44:24;5.88;;;3.60;;
26582;SDS011;14230;45.382;10.998;2022-08-19T10:46:58;7.07;;;3.65;;
26582;SDS011;14230;45.382;10.998;2022-08-19T10:49:26;4.43;;;3.03;;
26582;SDS011;14230;45.382;10.998;2022-08-19T10:51:54;6.47;;;2.90;;
26582;SDS011;14230;45.382;10.998;2022-08-19T10:54:47;6.32;;;3.53;;
26582;SDS011;14230;45.382;10.998;2022-08-19T10:57:37;5.88;;;2.95;;
26582;SDS011;14230;45.382;10.998;2022-08-19T11:00:25;7.25;;;3.88;;
26582;SDS011;14230;45.382;10.998;2022-08-19T11:02:52;7.15;;;3.63;;
26582;SDS011;14230;45.382;10.998;2022-08-19T11:05:20;6.45;;;4.00;;
26582;SDS011;14230;45.382;10.998;2022-08-19T11:07:50;5.95;;;4.00;;
26582;SDS011;14230;45.382;10.998;2022-08-19T11:10:18;7.10;;;4.20;;
26582;SDS011;14230;45.382;10.998;2022-08-19T11:12:48;6.22;;;3.30;;
26582;SDS011;14230;45.382;10.998;2022-08-19T11:15:17;7.50;;;4.07;;
26582;SDS011;14230;45.382;10.998;2022-08-19T11:17:44;6.95;;;3.70;;
26582;SDS011;14230;45.382;10.998;2022-08-19T11:20:13;6.15;;;3.88;;
26582;SDS011;14230;45.382;10.998;2022-08-19T11:22:41;8.90;;;4.15;;
26582;SDS011;14230;45.382;10.998;2022-08-19T11:25:10;6.43;;;3.88;;
26582;SDS011;14230;45.382;10.998;2022-08-19T11:27:39;6.68;;;3.97;;
26582;SDS011;14230;45.382;10.998;2022-08-19T11:30:13;5.22;;;3.50;;
26582;SDS011;14230;45.382;10.998;2022-08-19T11:32:41;5.75;;;4.05;;
26582;SDS011;14230;45.382;10.998;2022-08-19T11:35:15;8.02;;;4.13;;
26582;SDS011;14230;45.382;10.998;2022-08-19T11:37:43;8.00;;;4.25;;
26582;SDS011;14230;45.382;10.998;2022-08-19T11:40:10;5.15;;;3.92;;
26582;SDS011;14230;45.382;10.998;2022-08-19T11:42:38;6.00;;;4.05;;
26582;SDS011;14230;45.382;10.998;2022-08-19T11:45:24;8.23;;;4.80;;
26582;SDS011;14230;45.382;10.998;2022-08-19T11:47:54;6.07;;;4.30;;
26582;SDS011;14230;45.382;10.998;2022-08-19T11:50:23;4.95;;;4.45;;
26582;SDS011;14230;45.382;10.998;2022-08-19T11:52:55;4.95;;;3.80;;
26582;SDS011;14230;45.382;10.998;2022-08-19T11:55:23;5.57;;;4.45;;
26582;SDS011;14230;45.382;10.998;2022-08-19T11:57:51;6.60;;;4.03;;
26582;SDS011;14230;45.382;10.998;2022-08-19T12:00:18;5.35;;;3.53;;
26582;SDS011;14230;45.382;10.998;2022-08-19T12:02:46;4.88;;;4.10;;
26582;SDS011;14230;45.382;10.998;2022-08-19T12:05:13;5.20;;;4.18;;
26582;SDS011;14230;45.382;10.998;2022-08-19T12:07:41;5.55;;;4.28;;
26582;SDS011;14230;45.382;10.998;2022-08-19T12:10:10;6.35;;;4.00;;
26582;SDS011;14230;45.382;10.998;2022-08-19T12:12:37;6.90;;;4.18;;
26582;SDS011;14230;45.382;10.998;2022-08-19T12:15:09;7.67;;;4.60;;
26582;SDS011;14230;45.382;10.998;2022-08-19T12:17:38;6.43;;;4.38;;
26582;SDS011;14230;45.382;10.998;2022-08-19T12:20:07;4.70;;;4.13;;
26582;SDS011;14230;45.382;10.998;2022-08-19T12:22:37;6.05;;;3.92;;
26582;SDS011;14230;45.382;10.998;2022-08-19T12:25:05;4.93;;;3.67;;
26582;SDS011;14230;45.382;10.998;2022-08-19T12:27:34;7.38;;;3.85;;
26582;SDS011;14230;45.382;10.998;2022-08-19T12:30:09;4.72;;;3.38;;
26582;SDS011;14230;45.382;10.998;2022-08-19T12:32:37;7.32;;;3.97;;
26582;SDS011;14230;45.382;10.998;2022-08-19T12:35:06;5.88;;;3.95;;
26582;SDS011;14230;45.382;10.998;2022-08-19T12:37:35;5.43;;;3.67;;
26582;SDS011;14230;45.382;10.998;2022-08-19T12:40:04;5.70;;;3.10;;
26582;SDS011;14230;45.382;10.998;2022-08-19T12:42:32;7.55;;;2.95;;
26582;SDS011;14230;45.382;10.998;2022-08-19T12:45:00;3.25;;;2.88;;
26582;SDS011;14230;45.382;10.998;2022-08-19T12:47:27;6.03;;;3.13;;
26582;SDS011;14230;45.382;10.998;2022-08-19T12:49:57;5.15;;;2.60;;
26582;SDS011;14230;45.382;10.998;2022-08-19T12:52:24;7.85;;;2.78;;
26582;SDS011;14230;45.382;10.998;2022-08-19T12:54:54;5.85;;;3.00;;
26582;SDS011;14230;45.382;10.998;2022-08-19T12:57:24;3.13;;;2.20;;
26582;SDS011;14230;45.382;10.998;2022-08-19T13:00:08;6.50;;;3.03;;
26582;SDS011;14230;45.382;10.998;2022-08-19T13:02:39;6.30;;;2.30;;
26582;SDS011;14230;45.382;10.998;2022-08-19T13:05:09;4.88;;;2.50;;
26582;SDS011;14230;45.382;10.998;2022-08-19T13:07:38;7.35;;;2.20;;
26582;SDS011;14230;45.382;10.998;2022-08-19T13:10:08;3.25;;;2.28;;
26582;SDS011;14230;45.382;10.998;2022-08-19T13:12:38;3.80;;;2.70;;
26582;SDS011;14230;45.382;10.998;2022-08-19T13:15:08;5.05;;;2.78;;
26582;SDS011;14230;45.382;10.998;2022-08-19T13:17:37;9.18;;;2.72;;
26582;SDS011;14230;45.382;10.998;2022-08-19T13:20:06;5.97;;;2.78;;
26582;SDS011;14230;45.382;10.998;2022-08-19T13:22:35;5.90;;;2.63;;
26582;SDS011;14230;45.382;10.998;2022-08-19T13:25:07;4.13;;;2.78;;
26582;SDS011;14230;45.382;10.998;2022-08-19T13:27:36;6.97;;;3.03;;
26582;SDS011;14230;45.382;10.998;2022-08-19T13:30:05;3.75;;;2.67;;
26582;SDS011;14230;45.382;10.998;2022-08-19T13:32:53;5.55;;;3.22;;
26582;SDS011;14230;45.382;10.998;2022-08-19T13:35:53;6.78;;;2.97;;
26582;SDS011;14230;45.382;10.998;2022-08-19T13:38:24;4.47;;;3.30;;
26582;SDS011;14230;45.382;10.998;2022-08-19T13:40:53;3.55;;;2.97;;
26582;SDS011;14230;45.382;10.998;2022-08-19T13:43:22;8.35;;;2.83;;
26582;SDS011;14230;45.382;10.998;2022-08-19T13:45:53;5.35;;;3.40;;
26582;SDS011;14230;45.382;10.998;2022-08-19T13:48:23;6.13;;;3.13;;
26582;SDS011;14230;45.382;10.998;2022-08-19T13:50:53;8.38;;;3.38;;
26582;SDS011;14230;45.382;10.998;2022-08-19T13:53:21;4.68;;;3.35;;
26582;SDS011;14230;45.382;10.998;2022-08-19T13:55:50;4.38;;;3.97;;
26582;SDS011;14230;45.382;10.998;2022-08-19T13:58:17;4.70;;;3.03;;
26582;SDS011;14230;45.382;10.998;2022-08-19T14:00:45;6.30;;;3.25;;
26582;SDS011;14230;45.382;10.998;2022-08-19T14:03:13;7.10;;;3.13;;
26582;SDS011;14230;45.382;10.998;2022-08-19T14:05:41;4.47;;;3.03;;
26582;SDS011;14230;45.382;10.998;2022-08-19T14:08:08;6.68;;;3.08;;
26582;SDS011;14230;45.382;10.998;2022-08-19T14:10:36;5.32;;;3.00;;
26582;SDS011;14230;45.382;10.998;2022-08-19T14:13:04;5.20;;;3.30;;
26582;SDS011;14230;45.382;10.998;2022-08-19T14:15:31;8.02;;;3.03;;
26582;SDS011;14230;45.382;10.998;2022-08-19T14:17:59;3.83;;;2.78;;
26582;SDS011;14230;45.382;10.998;2022-08-19T14:20:26;5.05;;;2.60;;
26582;SDS011;14230;45.382;10.998;2022-08-19T14:22:55;5.07;;;2.60;;
26582;SDS011;14230;45.382;10.998;2022-08-19T14:25:24;4.55;;;2.80;;
26582;SDS011;14230;45.382;10.998;2022-08-19T14:27:52;4.88;;;2.67;;
26582;SDS011;14230;45.382;10.998;2022-08-19T14:30:22;4.60;;;2.13;;
26582;SDS011;14230;45.382;10.998;2022-08-19T14:32:55;4.07;;;2.60;;
26582;SDS011;14230;45.382;10.998;2022-08-19T14:35:25;7.82;;;3.08;;
26582;SDS011;14230;45.382;10.998;2022-08-19T14:37:54;5.63;;;2.60;;
26582;SDS011;14230;45.382;10.998;2022-08-19T14:40:25;5.50;;;2.85;;
26582;SDS011;14230;45.382;10.998;2022-08-19T14:42:55;5.22;;;3.60;;
26582;SDS011;14230;45.382;10.998;2022-08-19T14:45:27;4.20;;;3.58;;
26582;SDS011;14230;45.382;10.998;2022-08-19T14:47:55;6.53;;;3.53;;
26582;SDS011;14230;45.382;10.998;2022-08-19T14:50:23;5.65;;;4.00;;
26582;SDS011;14230;45.382;10.998;2022-08-19T14:52:56;3.20;;;2.72;;
26582;SDS011;14230;45.382;10.998;2022-08-19T14:55:42;7.00;;;3.92;;
26582;SDS011;14230;45.382;10.998;2022-08-19T14:58:11;5.78;;;3.72;;
26582;SDS011;14230;45.382;10.998;2022-08-19T15:00:58;5.40;;;2.92;;
26582;SDS011;14230;45.382;10.998;2022-08-19T15:03:27;5.15;;;3.28;;
26582;SDS011;14230;45.382;10.998;2022-08-19T15:05:55;6.38;;;3.10;;
26582;SDS011;14230;45.382;10.998;2022-08-19T15:08:24;7.50;;;3.05;;
26582;SDS011;14230;45.382;10.998;2022-08-19T15:10:53;4.22;;;3.10;;
26582;SDS011;14230;45.382;10.998;2022-08-19T15:13:21;6.00;;;2.95;;